createdAt,value
2022-12-28T00:29:24.763Z,0
2022-12-28T00:30:05.200Z,0
2022-12-28T00:30:45.668Z,0
2022-12-28T00:31:26.244Z,0
2022-12-28T00:32:06.728Z,0
2022-12-28T00:32:47.193Z,0
2022-12-28T00:33:27.678Z,0
2022-12-28T00:34:08.201Z,0
2022-12-28T00:34:48.626Z,0
2022-12-28T00:36:09.603Z,0
2022-12-28T00:43:34.947Z,0
2022-12-28T00:44:15.438Z,0
2022-12-28T00:44:55.965Z,0
2022-12-28T00:45:36.502Z,0
2022-12-28T00:46:16.979Z,0
2022-12-28T00:46:57.472Z,0
2022-12-28T00:47:38.005Z,0
2022-12-28T00:48:18.450Z,0
2022-12-28T00:48:58.932Z,0
2022-12-28T00:49:39.436Z,0
2022-12-28T00:57:04.877Z,0
2022-12-28T00:57:45.357Z,0
2022-12-28T00:58:25.839Z,0
2022-12-28T00:59:06.329Z,0
2022-12-28T00:59:46.800Z,0
2022-12-28T01:01:07.836Z,0
2022-12-28T01:01:48.441Z,0
2022-12-28T01:02:28.784Z,0
2022-12-28T01:03:09.306Z,0
2022-12-28T01:03:49.777Z,0
2022-12-28T01:10:34.638Z,0
2022-12-28T01:11:15.139Z,0
2022-12-28T01:11:56.195Z,0
2022-12-28T01:12:38.196Z,0
2022-12-28T01:13:16.659Z,0
2022-12-28T01:13:57.161Z,0
2022-12-28T01:14:37.670Z,0
2022-12-28T01:15:18.147Z,0
2022-12-28T01:15:58.708Z,0
2022-12-28T01:16:39.263Z,0
2022-12-28T01:17:19.703Z,0
2022-12-28T01:24:04.615Z,0
2022-12-28T01:24:45.096Z,0
2022-12-28T01:25:25.586Z,0
2022-12-28T01:26:06.064Z,0
2022-12-28T01:26:46.579Z,0
2022-12-28T01:27:27.043Z,0
2022-12-28T01:28:48.048Z,0
2022-12-28T01:29:28.538Z,0
2022-12-28T01:30:09.028Z,0
2022-12-28T01:30:49.510Z,0
2022-12-28T01:38:14.851Z,0
2022-12-28T01:38:55.345Z,0
2022-12-28T01:39:35.813Z,0
2022-12-28T01:40:16.323Z,0
2022-12-28T01:40:56.796Z,0
2022-12-28T01:41:37.272Z,0
2022-12-28T01:42:17.764Z,0
2022-12-28T01:42:58.291Z,0
2022-12-28T01:43:38.753Z,0
2022-12-28T01:44:19.247Z,0
2022-12-28T01:44:59.738Z,0
2022-12-28T01:51:44.724Z,0
2022-12-28T01:52:25.201Z,0
2022-12-28T01:53:05.687Z,0
2022-12-28T01:53:46.157Z,0
2022-12-28T01:54:26.633Z,0
2022-12-28T01:55:07.127Z,0
2022-12-28T01:55:47.595Z,0
2022-12-28T01:56:28.085Z,0
2022-12-28T01:57:08.554Z,0
2022-12-28T01:57:49.072Z,0
2022-12-28T01:58:29.584Z,0
2022-12-28T02:05:14.560Z,0
2022-12-28T02:05:55.053Z,0
2022-12-28T02:06:35.543Z,0
2022-12-28T02:07:16.040Z,0
2022-12-28T02:07:56.521Z,0
2022-12-28T02:08:37.003Z,0
2022-12-28T02:09:17.507Z,0
2022-12-28T02:10:41.988Z,0
2022-12-28T02:10:42.014Z,0
2022-12-28T02:14:32.605Z,0
2022-12-28T02:15:15.994Z,0
2022-12-28T02:15:53.595Z,0
2022-12-28T02:16:34.102Z,0
2022-12-28T02:17:14.575Z,0
2022-12-28T02:17:55.041Z,0
2022-12-28T02:18:35.489Z,0
2022-12-28T02:19:15.975Z,0
2022-12-28T02:19:56.464Z,0
2022-12-28T02:20:36.949Z,0
2022-12-28T02:21:18.395Z,0
2022-12-28T02:26:42.349Z,0
2022-12-28T02:27:22.846Z,0
2022-12-28T02:28:03.341Z,0
2022-12-28T02:28:43.821Z,0
2022-12-28T02:29:24.311Z,0
2022-12-28T02:30:04.828Z,0
2022-12-28T02:30:45.361Z,0
2022-12-28T02:31:25.821Z,0
2022-12-28T02:32:06.298Z,0
2022-12-28T02:32:47.798Z,0
2022-12-28T02:38:52.311Z,0
2022-12-28T02:39:32.802Z,0
2022-12-28T02:40:13.306Z,0
2022-12-28T02:40:53.822Z,0
2022-12-28T02:41:34.291Z,0
2022-12-28T02:42:14.788Z,0
2022-12-28T02:42:55.347Z,0
2022-12-28T02:43:35.815Z,0
2022-12-28T02:44:16.310Z,0
2022-12-28T02:44:56.792Z,0
2022-12-28T02:45:37.257Z,0
2022-12-28T02:53:02.613Z,0
2022-12-28T02:53:43.072Z,0
2022-12-28T02:54:23.537Z,0
2022-12-28T02:55:04.013Z,0
2022-12-28T02:55:44.526Z,0
2022-12-28T02:56:24.984Z,0
2022-12-28T02:57:05.465Z,0
2022-12-28T02:57:45.952Z,0
2022-12-28T02:58:26.454Z,0
2022-12-28T03:00:39.294Z,0
2022-12-28T03:01:19.865Z,0
2022-12-28T03:02:00.517Z,0
2022-12-28T03:02:40.957Z,0
2022-12-28T03:03:21.406Z,0
2022-12-28T03:04:42.431Z,0
2022-12-28T03:05:22.884Z,0
2022-12-28T03:06:03.369Z,0
2022-12-28T03:06:43.849Z,0
2022-12-28T03:14:09.208Z,0
2022-12-28T03:14:49.755Z,0
2022-12-28T03:15:30.367Z,0
2022-12-28T03:16:10.709Z,0
2022-12-28T03:16:51.193Z,0
2022-12-28T03:17:31.815Z,0
2022-12-28T03:18:12.303Z,0
2022-12-28T03:18:52.817Z,0
2022-12-28T03:19:33.332Z,0
2022-12-28T03:20:13.836Z,0
2022-12-28T03:26:59.225Z,0
2022-12-28T03:27:39.722Z,0
2022-12-28T03:28:20.271Z,0
2022-12-28T03:29:00.730Z,0
2022-12-28T03:29:41.207Z,0
2022-12-28T03:30:21.700Z,0
2022-12-28T03:31:02.209Z,0
2022-12-28T03:31:42.721Z,0
2022-12-28T03:32:23.176Z,0
2022-12-28T03:33:03.664Z,0
2022-12-28T03:40:29.112Z,0
2022-12-28T03:41:50.140Z,0
2022-12-28T03:42:30.563Z,0
2022-12-28T03:43:11.070Z,0
2022-12-28T03:43:51.606Z,0
2022-12-28T03:44:32.077Z,0
2022-12-28T03:45:12.575Z,0
2022-12-28T03:45:53.080Z,0
2022-12-28T03:46:33.594Z,0
2022-12-28T03:47:14.018Z,0
2022-12-28T03:53:58.941Z,0
2022-12-28T03:54:39.449Z,0
2022-12-28T03:55:19.945Z,0
2022-12-28T03:56:00.441Z,0
2022-12-28T03:56:40.954Z,0
2022-12-28T03:57:21.425Z,0
2022-12-28T03:58:01.900Z,0
2022-12-28T03:58:42.426Z,0
2022-12-28T03:59:22.923Z,0
2022-12-28T04:00:03.421Z,0
2022-12-28T04:00:43.894Z,0
2022-12-28T04:07:28.904Z,0
2022-12-28T04:08:09.447Z,0
2022-12-28T04:09:30.457Z,0
2022-12-28T04:10:10.980Z,0
2022-12-28T04:10:52.024Z,0
2022-12-28T04:11:32.557Z,0
2022-12-28T04:12:13.068Z,0
2022-12-28T04:12:53.569Z,0
2022-12-28T04:13:34.050Z,0
2022-12-28T04:20:19.008Z,0
2022-12-28T04:20:59.497Z,0
2022-12-28T04:21:39.985Z,0
2022-12-28T04:22:20.473Z,0
2022-12-28T04:23:00.963Z,0
2022-12-28T04:23:41.451Z,0
2022-12-28T04:24:21.954Z,0
2022-12-28T04:25:02.449Z,0
2022-12-28T04:25:42.956Z,0
2022-12-28T04:26:23.459Z,0
2022-12-28T04:27:03.924Z,0
2022-12-28T04:33:08.834Z,0
2022-12-28T04:33:49.323Z,0
2022-12-28T04:34:29.810Z,0
2022-12-28T04:35:10.320Z,0
2022-12-28T04:35:50.876Z,0
2022-12-28T04:36:31.333Z,0
2022-12-28T04:37:11.844Z,0
2022-12-28T04:37:52.374Z,0
2022-12-28T04:38:32.871Z,0
2022-12-28T04:39:13.393Z,0
2022-12-28T04:39:54.362Z,0
2022-12-28T04:47:19.413Z,0
2022-12-28T04:47:59.849Z,0
2022-12-28T04:48:40.342Z,0
2022-12-28T04:49:20.847Z,0
2022-12-28T04:50:01.310Z,0
2022-12-28T04:50:41.817Z,0
2022-12-28T04:51:22.289Z,0
2022-12-28T04:52:02.795Z,0
2022-12-28T04:52:43.304Z,0
2022-12-28T04:53:23.843Z,0
2022-12-28T05:00:49.223Z,0
2022-12-28T05:01:29.746Z,0
2022-12-28T05:02:10.355Z,0
2022-12-28T05:02:50.741Z,0
2022-12-28T05:03:31.184Z,0
2022-12-28T05:04:11.626Z,0
2022-12-28T05:04:52.140Z,0
2022-12-28T05:05:33.438Z,0
2022-12-28T05:06:14.378Z,0
2022-12-28T05:12:59.287Z,0
2022-12-28T05:13:39.764Z,0
2022-12-28T05:14:20.261Z,0
2022-12-28T05:15:00.766Z,0
2022-12-28T05:15:41.262Z,0
2022-12-28T05:16:21.833Z,0
2022-12-28T05:19:35.577Z,0
2022-12-28T05:20:16.058Z,0
2022-12-28T05:20:56.502Z,0
2022-12-28T05:21:37.288Z,0
2022-12-28T05:22:17.822Z,0
2022-12-28T05:22:58.527Z,0
2022-12-28T05:23:39.025Z,0
2022-12-28T05:24:19.550Z,0
2022-12-28T05:25:00.007Z,0
2022-12-28T05:25:40.527Z,0
2022-12-28T05:32:25.604Z,0
2022-12-28T05:33:06.104Z,0
2022-12-28T05:34:27.089Z,0
2022-12-28T05:35:07.560Z,0
2022-12-28T05:35:48.042Z,0
2022-12-28T05:36:28.756Z,0
2022-12-28T05:37:09.245Z,0
2022-12-28T05:37:49.727Z,0
2022-12-28T05:38:30.232Z,0
2022-12-28T05:45:15.229Z,0
2022-12-28T05:45:55.762Z,0
2022-12-28T05:46:36.365Z,0
2022-12-28T05:47:16.899Z,0
2022-12-28T05:47:57.330Z,0
2022-12-28T05:48:37.818Z,0
2022-12-28T05:49:18.338Z,0
2022-12-28T05:49:58.826Z,0
2022-12-28T05:50:39.323Z,0
2022-12-28T05:52:00.305Z,0
2022-12-28T06:31:58.145Z,0
2022-12-28T06:32:38.509Z,0
2022-12-28T06:33:19.013Z,0
2022-12-28T06:33:59.466Z,0
2022-12-28T06:34:40.006Z,0
2022-12-28T06:35:20.465Z,0
2022-12-28T06:36:00.946Z,0
2022-12-28T06:36:41.438Z,0
2022-12-28T06:37:21.929Z,0
2022-12-28T06:38:42.969Z,0
2022-12-28T06:45:27.811Z,0
2022-12-28T06:46:08.326Z,0
2022-12-28T06:46:48.803Z,0
2022-12-28T06:47:29.344Z,0
2022-12-28T06:48:09.803Z,0
2022-12-28T06:48:50.291Z,0
2022-12-28T06:49:30.800Z,0
2022-12-28T06:50:11.297Z,0
2022-12-28T06:50:51.779Z,0
2022-12-28T06:51:32.268Z,0
2022-12-28T06:52:12.742Z,0
2022-12-28T06:59:02.723Z,0
2022-12-28T06:59:38.199Z,0
2022-12-28T07:00:18.799Z,0
2022-12-28T07:00:59.369Z,0
2022-12-28T07:01:39.984Z,0
2022-12-28T07:02:20.446Z,0
2022-12-28T07:03:00.846Z,0
2022-12-28T07:03:41.283Z,0
2022-12-28T07:04:21.742Z,0
2022-12-28T07:05:02.921Z,0
2022-12-28T07:11:47.836Z,0
2022-12-28T07:12:28.351Z,0
2022-12-28T07:13:08.825Z,0
2022-12-28T07:13:49.341Z,0
2022-12-28T07:14:29.814Z,0
2022-12-28T07:15:10.333Z,0
2022-12-28T07:15:50.855Z,0
2022-12-28T07:19:24.801Z,0
2022-12-28T07:20:05.317Z,0
2022-12-28T07:20:45.734Z,4
2022-12-28T07:21:26.230Z,4
2022-12-28T07:22:06.731Z,0
2022-12-28T07:22:47.223Z,4
2022-12-28T07:23:27.714Z,4
2022-12-28T07:24:08.221Z,8
2022-12-28T07:24:48.738Z,4
2022-12-28T07:25:29.260Z,8
2022-12-28T07:32:54.878Z,8
2022-12-28T07:33:35.349Z,8
2022-12-28T07:34:15.855Z,8
2022-12-28T07:34:56.377Z,12
2022-12-28T07:35:36.860Z,12
2022-12-28T07:36:17.397Z,12
2022-12-28T07:36:57.891Z,12
2022-12-28T07:37:38.373Z,12
2022-12-28T07:38:21.482Z,12
2022-12-28T07:38:59.417Z,12
2022-12-28T07:39:39.942Z,16
2022-12-28T07:46:24.979Z,16
2022-12-28T07:47:05.454Z,20
2022-12-28T07:47:45.951Z,20
2022-12-28T07:48:26.476Z,20
2022-12-28T07:49:06.965Z,24
2022-12-28T07:49:47.499Z,24
2022-12-28T07:50:31.574Z,28
2022-12-28T07:51:08.455Z,28
2022-12-28T07:51:48.998Z,28
2022-12-28T07:52:29.511Z,28
2022-12-28T07:59:30.715Z,40
2022-12-28T08:00:06.401Z,44
2022-12-28T08:00:46.884Z,40
2022-12-28T08:01:27.503Z,44
2022-12-28T08:02:08.018Z,44
2022-12-28T08:02:48.397Z,48
2022-12-28T08:03:28.914Z,48
2022-12-28T08:04:09.500Z,48
2022-12-28T08:04:52.115Z,52
2022-12-28T08:05:30.417Z,52
2022-12-28T08:06:10.964Z,52
2022-12-28T08:12:56.048Z,64
2022-12-28T08:13:36.563Z,64
2022-12-28T08:14:17.075Z,64
2022-12-28T08:14:57.578Z,72
2022-12-28T08:15:38.126Z,72
2022-12-28T08:16:18.657Z,72
2022-12-28T08:16:59.066Z,76
2022-12-28T08:17:39.616Z,76
2022-12-28T08:18:20.142Z,80
2022-12-28T08:25:45.668Z,124
2022-12-28T08:26:26.214Z,128
2022-12-28T08:27:06.709Z,128
2022-12-28T08:27:47.182Z,132
2022-12-28T08:28:27.688Z,136
2022-12-28T08:29:08.200Z,140
2022-12-28T08:29:48.706Z,144
2022-12-28T08:30:29.205Z,144
2022-12-28T08:31:09.793Z,144
2022-12-28T08:31:50.241Z,144
2022-12-28T08:32:30.729Z,140
2022-12-28T08:39:15.733Z,156
2022-12-28T08:39:56.261Z,156
2022-12-28T08:40:36.709Z,156
2022-12-28T08:41:17.239Z,160
2022-12-28T08:41:57.676Z,160
2022-12-28T08:42:38.188Z,160
2022-12-28T08:43:18.679Z,164
2022-12-28T08:43:59.209Z,160
2022-12-28T08:44:39.659Z,156
2022-12-28T08:45:20.161Z,152
2022-12-28T08:46:00.750Z,156
2022-12-28T08:52:45.682Z,180
2022-12-28T08:53:26.177Z,180
2022-12-28T08:54:06.628Z,176
2022-12-28T08:54:47.208Z,172
2022-12-28T08:55:27.635Z,172
2022-12-28T08:56:08.115Z,172
2022-12-28T08:56:48.596Z,176
2022-12-28T08:57:29.197Z,172
2022-12-28T08:58:09.672Z,172
2022-12-28T08:58:50.211Z,172
2022-12-28T09:00:48.316Z,192
2022-12-28T09:01:28.865Z,196
2022-12-28T09:02:09.311Z,208
2022-12-28T09:02:49.817Z,216
2022-12-28T09:03:30.260Z,220
2022-12-28T09:04:10.769Z,224
2022-12-28T09:04:51.255Z,232
2022-12-28T09:05:35.969Z,248
2022-12-28T09:06:12.283Z,264
2022-12-28T09:06:52.750Z,276
2022-12-28T09:07:33.228Z,280
2022-12-28T09:14:23.511Z,264
2022-12-28T09:14:58.604Z,256
2022-12-28T09:15:39.153Z,252
2022-12-28T09:16:19.676Z,248
2022-12-28T09:17:00.127Z,256
2022-12-28T09:17:40.614Z,252
2022-12-28T09:18:21.131Z,248
2022-12-28T09:19:01.587Z,240
2022-12-28T09:19:42.074Z,256
2022-12-28T09:20:22.633Z,264
2022-12-28T09:21:03.073Z,276
2022-12-28T09:27:48.077Z,328
2022-12-28T09:28:28.596Z,336
2022-12-28T09:29:09.077Z,360
2022-12-28T09:29:49.574Z,380
2022-12-28T09:30:30.104Z,392
2022-12-28T09:31:10.647Z,408
2022-12-28T09:31:51.111Z,424
2022-12-28T09:32:31.646Z,440
2022-12-28T09:33:12.142Z,456
2022-12-28T09:34:32.014Z,464
2022-12-28T09:40:38.244Z,428
2022-12-28T09:41:18.731Z,420
2022-12-28T09:41:59.246Z,416
2022-12-28T09:42:39.731Z,408
2022-12-28T09:43:20.216Z,400
2022-12-28T09:44:00.733Z,384
2022-12-28T09:44:41.280Z,376
2022-12-28T09:45:21.769Z,372
2022-12-28T09:46:02.399Z,360
2022-12-28T09:46:46.733Z,356
2022-12-28T09:47:23.285Z,356
2022-12-28T09:54:08.283Z,332
2022-12-28T09:54:48.813Z,328
2022-12-28T09:55:29.291Z,328
2022-12-28T09:56:09.759Z,332
2022-12-28T09:56:50.243Z,332
2022-12-28T09:57:30.722Z,332
2022-12-28T09:58:11.270Z,328
2022-12-28T09:58:51.755Z,328
2022-12-28T09:59:32.264Z,328
2022-12-28T10:00:12.756Z,328
2022-12-28T10:07:38.310Z,360
2022-12-28T10:08:18.795Z,364
2022-12-28T10:08:59.385Z,376
2022-12-28T10:09:39.860Z,376
2022-12-28T10:10:20.458Z,380
2022-12-28T10:11:00.914Z,388
2022-12-28T10:11:41.397Z,396
2022-12-28T10:12:21.882Z,404
2022-12-28T10:13:54.390Z,412
2022-12-28T10:14:23.331Z,408
2022-12-28T10:19:48.011Z,452
2022-12-28T10:20:28.498Z,460
2022-12-28T10:21:09.008Z,460
2022-12-28T10:21:49.483Z,460
2022-12-28T10:22:29.973Z,452
2022-12-28T10:23:10.511Z,452
2022-12-28T10:24:21.167Z,456
2022-12-28T10:24:32.582Z,444
2022-12-28T10:25:12.031Z,444
2022-12-28T10:25:52.548Z,436
2022-12-28T10:26:33.009Z,436
2022-12-28T10:33:18.056Z,548
2022-12-28T10:33:58.513Z,564
2022-12-28T10:34:39.060Z,576
2022-12-28T10:35:19.549Z,580
2022-12-28T10:36:00.059Z,576
2022-12-28T10:36:40.575Z,576
2022-12-28T10:37:21.147Z,584
2022-12-28T10:38:01.629Z,588
2022-12-28T10:38:42.128Z,572
2022-12-28T10:39:22.638Z,544
2022-12-28T10:40:03.113Z,520
2022-12-28T10:46:48.155Z,404
2022-12-28T10:47:28.599Z,404
2022-12-28T10:48:09.103Z,404
2022-12-28T10:48:49.619Z,404
2022-12-28T10:49:30.113Z,400
2022-12-28T10:50:35.741Z,404
2022-12-28T10:50:51.113Z,408
2022-12-28T10:51:31.629Z,412
2022-12-28T10:52:12.110Z,412
2022-12-28T10:52:52.634Z,408
2022-12-28T10:53:33.138Z,404
2022-12-28T11:00:18.034Z,256
2022-12-28T11:00:58.644Z,256
2022-12-28T11:01:39.255Z,252
2022-12-28T11:02:19.690Z,272
2022-12-28T11:03:00.086Z,316
2022-12-28T11:03:40.596Z,324
2022-12-28T11:04:21.034Z,332
2022-12-28T11:05:42.045Z,364
2022-12-28T11:06:26.546Z,344
2022-12-28T11:07:03.064Z,360
2022-12-28T11:13:48.077Z,484
2022-12-28T11:14:28.595Z,484
2022-12-28T11:15:09.089Z,496
2022-12-28T11:15:49.574Z,504
2022-12-28T11:16:30.102Z,504
2022-12-28T11:17:10.545Z,484
2022-12-28T11:17:51.032Z,460
2022-12-28T11:18:36.271Z,452
2022-12-28T11:19:12.048Z,476
2022-12-28T11:19:52.542Z,496
2022-12-28T11:20:33.028Z,496
2022-12-28T11:27:18.126Z,448
2022-12-28T11:27:58.658Z,440
2022-12-28T11:29:19.642Z,424
2022-12-28T11:30:00.125Z,404
2022-12-28T11:30:40.591Z,400
2022-12-28T11:31:21.109Z,396
2022-12-28T11:32:01.581Z,404
2022-12-28T11:32:42.045Z,404
2022-12-28T11:33:22.540Z,400
2022-12-28T11:34:03.043Z,400
2022-12-28T11:40:48.121Z,320
2022-12-28T11:44:27.815Z,304
2022-12-28T11:45:08.287Z,312
2022-12-28T11:45:48.773Z,344
2022-12-28T11:46:29.279Z,360
2022-12-28T11:47:09.763Z,336
2022-12-28T11:47:50.249Z,312
2022-12-28T11:48:30.778Z,304
2022-12-28T11:49:11.312Z,300
2022-12-28T11:49:51.844Z,284
2022-12-28T11:51:12.831Z,276
2022-12-28T12:32:17.662Z,172
2022-12-28T12:32:58.116Z,180
2022-12-28T12:33:38.644Z,184
2022-12-28T12:34:19.861Z,180
2022-12-28T12:34:59.651Z,172
2022-12-28T12:35:40.150Z,184
2022-12-28T12:36:20.620Z,184
2022-12-28T12:39:34.193Z,200
2022-12-28T12:40:14.830Z,192
2022-12-28T12:40:55.305Z,192
2022-12-28T12:41:35.780Z,204
2022-12-28T12:42:16.280Z,216
2022-12-28T12:42:56.767Z,216
2022-12-28T12:43:37.256Z,216
2022-12-28T12:44:17.736Z,208
2022-12-28T12:44:58.213Z,204
2022-12-28T12:45:38.842Z,208
2022-12-28T12:46:19.259Z,212
2022-12-28T12:53:04.121Z,192
2022-12-28T12:53:48.363Z,184
2022-12-28T12:54:25.113Z,184
2022-12-28T12:55:05.643Z,180
2022-12-28T12:55:46.110Z,180
2022-12-28T12:56:26.611Z,172
2022-12-28T12:57:07.095Z,160
2022-12-28T12:57:47.595Z,160
2022-12-28T12:58:28.096Z,156
2022-12-28T12:59:08.548Z,152
2022-12-28T13:02:38.009Z,136
2022-12-28T13:03:18.562Z,140
2022-12-28T13:03:58.906Z,128
2022-12-28T13:04:39.400Z,148
2022-12-28T13:05:19.866Z,172
2022-12-28T13:06:00.358Z,172
2022-12-28T13:06:40.868Z,160
2022-12-28T13:08:01.788Z,128
2022-12-28T13:08:42.291Z,140
2022-12-28T13:09:22.744Z,140
2022-12-28T13:16:07.747Z,168
2022-12-28T13:16:48.111Z,176
2022-12-28T13:18:43.335Z,164
2022-12-28T13:18:49.648Z,172
2022-12-28T13:19:30.086Z,184
2022-12-28T13:20:10.602Z,168
2022-12-28T13:20:51.054Z,172
2022-12-28T13:21:31.560Z,164
2022-12-28T13:22:12.091Z,128
2022-12-28T13:22:52.613Z,112
2022-12-28T13:30:17.969Z,140
2022-12-28T13:30:58.535Z,136
2022-12-28T13:31:38.972Z,124
2022-12-28T13:32:19.496Z,140
2022-12-28T13:33:40.481Z,164
2022-12-28T13:34:21.013Z,168
2022-12-28T13:35:01.467Z,172
2022-12-28T13:35:41.964Z,168
2022-12-28T13:36:22.462Z,148
2022-12-28T13:37:02.972Z,124
2022-12-28T13:46:20.986Z,124
2022-12-28T13:47:01.421Z,120
2022-12-28T13:47:42.026Z,112
2022-12-28T13:48:22.559Z,104
2022-12-28T13:49:03.087Z,100
2022-12-28T13:49:43.701Z,108
2022-12-28T13:50:24.196Z,112
2022-12-28T13:51:04.662Z,120
2022-12-28T13:51:49.795Z,124
2022-12-28T13:52:25.663Z,128
2022-12-28T13:59:10.650Z,120
2022-12-28T13:59:51.176Z,124
2022-12-28T14:00:31.710Z,128
2022-12-28T14:01:12.268Z,128
2022-12-28T14:01:52.908Z,132
2022-12-28T14:02:33.225Z,128
2022-12-28T14:03:13.720Z,132
2022-12-28T14:03:54.210Z,132
2022-12-28T14:05:15.254Z,124
2022-12-28T14:11:20.591Z,128
2022-12-28T14:12:01.153Z,124
2022-12-28T14:12:41.631Z,128
2022-12-28T14:13:22.108Z,132
2022-12-28T14:14:02.620Z,132
2022-12-28T14:14:43.083Z,136
2022-12-28T14:15:23.560Z,140
2022-12-28T14:16:04.133Z,140
2022-12-28T14:16:44.531Z,132
2022-12-28T14:17:25.050Z,124
2022-12-28T14:18:05.544Z,132
2022-12-28T14:25:30.959Z,132
2022-12-28T14:29:10.520Z,128
2022-12-28T14:29:51.098Z,124
2022-12-28T14:30:31.621Z,124
2022-12-28T14:31:12.151Z,120
2022-12-28T14:34:34.584Z,96
2022-12-28T14:35:15.042Z,84
2022-12-28T14:35:55.559Z,88
2022-12-28T14:36:36.037Z,84
2022-12-28T14:37:16.528Z,80
2022-12-28T14:37:57.017Z,92
2022-12-28T14:38:37.565Z,76
2022-12-28T14:39:18.063Z,68
2022-12-28T14:39:58.567Z,64
2022-12-28T14:40:39.822Z,64
2022-12-28T14:41:20.396Z,56
2022-12-28T14:46:44.467Z,36
2022-12-28T14:47:24.866Z,44
2022-12-28T14:48:05.386Z,48
2022-12-28T14:48:45.857Z,44
2022-12-28T14:49:26.405Z,40
2022-12-28T14:50:07.694Z,44
2022-12-28T14:50:48.141Z,40
2022-12-28T14:51:28.744Z,40
2022-12-28T14:52:09.210Z,40
2022-12-28T15:01:07.040Z,36
2022-12-28T15:01:47.681Z,40
2022-12-28T15:02:28.187Z,44
2022-12-28T15:03:08.761Z,44
2022-12-28T15:03:49.143Z,48
2022-12-28T15:04:29.636Z,44
2022-12-28T15:05:10.139Z,36
2022-12-28T15:05:50.725Z,36
2022-12-28T15:06:31.248Z,36
2022-12-28T15:07:11.762Z,36
2022-12-28T15:07:52.205Z,44
2022-12-28T15:08:32.688Z,36
2022-12-28T15:15:17.789Z,24
2022-12-28T15:15:58.354Z,20
2022-12-28T15:16:38.954Z,20
2022-12-28T15:17:19.352Z,24
2022-12-28T15:17:59.885Z,24
2022-12-28T15:18:40.393Z,20
2022-12-28T15:19:20.893Z,20
2022-12-28T15:20:01.395Z,20
2022-12-28T15:20:41.882Z,20
2022-12-28T15:21:22.385Z,20
2022-12-28T15:28:07.515Z,8
2022-12-28T15:28:48.043Z,8
2022-12-28T15:29:47.789Z,4
2022-12-28T15:30:12.032Z,8
2022-12-28T15:30:49.573Z,8
2022-12-28T15:31:30.215Z,4
2022-12-28T15:32:10.597Z,4
2022-12-28T15:32:51.104Z,8
2022-12-28T15:33:31.627Z,8
2022-12-28T15:34:12.117Z,8
2022-12-28T15:34:52.610Z,8
2022-12-28T15:41:37.856Z,4
2022-12-28T15:42:18.421Z,4
2022-12-28T15:42:58.913Z,8
2022-12-28T15:43:39.416Z,8
2022-12-28T15:44:19.884Z,4
2022-12-28T15:45:00.386Z,4
2022-12-28T15:45:40.900Z,4
2022-12-28T15:46:21.454Z,4
2022-12-28T15:47:01.949Z,0
2022-12-28T15:47:42.423Z,0
2022-12-28T15:54:27.539Z,0
2022-12-28T15:55:08.020Z,0
2022-12-28T15:55:48.518Z,0
2022-12-28T15:56:29.054Z,0
2022-12-28T15:57:09.585Z,0
2022-12-28T15:57:50.105Z,0
2022-12-28T15:59:11.157Z,0
2022-12-28T15:59:51.645Z,0
2022-12-28T16:00:32.253Z,0
2022-12-28T16:07:57.778Z,0
2022-12-28T16:08:38.270Z,0
2022-12-28T16:09:18.789Z,0
2022-12-28T16:09:59.276Z,0
2022-12-28T16:10:39.806Z,0
2022-12-28T16:11:20.266Z,0
2022-12-28T16:12:00.753Z,0
2022-12-28T16:12:41.253Z,0
2022-12-28T16:13:21.822Z,0
2022-12-28T16:20:47.340Z,0
2022-12-28T16:21:27.831Z,0
2022-12-28T16:22:08.331Z,0
2022-12-28T16:22:48.866Z,0
2022-12-28T16:23:29.378Z,0
2022-12-28T16:24:10.021Z,0
2022-12-28T16:24:50.455Z,0
2022-12-28T16:25:30.928Z,0
2022-12-28T16:26:11.436Z,0
2022-12-28T16:26:51.941Z,0
2022-12-28T16:27:32.441Z,0
2022-12-28T16:34:17.525Z,0
2022-12-28T16:34:58.007Z,0
2022-12-28T16:35:38.551Z,0
2022-12-28T16:36:19.018Z,0
2022-12-28T16:36:59.665Z,0
2022-12-28T16:37:40.085Z,0
2022-12-28T16:38:20.614Z,0
2022-12-28T16:39:01.087Z,0
2022-12-28T16:39:41.624Z,0
2022-12-28T16:40:22.172Z,0
2022-12-28T16:41:02.646Z,0
2022-12-28T16:47:47.629Z,0
2022-12-28T16:48:28.152Z,0
2022-12-28T16:49:08.683Z,0
2022-12-28T16:49:49.185Z,0
2022-12-28T16:50:29.690Z,0
2022-12-28T16:51:10.203Z,0
2022-12-28T16:51:50.702Z,0
2022-12-28T16:52:31.212Z,0
2022-12-28T16:53:11.724Z,0
2022-12-28T16:53:52.303Z,0
2022-12-28T17:00:37.385Z,0
2022-12-28T17:01:17.950Z,0
2022-12-28T17:01:58.543Z,0
2022-12-28T17:02:39.128Z,0
2022-12-28T17:03:19.454Z,0
2022-12-28T17:04:03.901Z,0
2022-12-28T17:04:40.419Z,0
2022-12-28T17:05:20.958Z,0
2022-12-28T17:06:01.477Z,0
2022-12-28T17:06:41.961Z,0
2022-12-28T17:07:22.480Z,0
2022-12-28T17:13:27.802Z,0
2022-12-28T17:14:08.294Z,0
2022-12-28T17:14:48.837Z,0
2022-12-28T17:15:29.324Z,0
2022-12-28T17:16:09.875Z,0
2022-12-28T17:16:50.365Z,0
2022-12-28T17:17:30.820Z,0
2022-12-28T17:18:11.299Z,0
2022-12-28T17:18:51.816Z,0
2022-12-28T17:19:32.297Z,0
2022-12-28T17:25:37.860Z,0
2022-12-28T17:26:18.375Z,0
2022-12-28T17:27:03.620Z,0
2022-12-28T17:27:39.436Z,0
2022-12-28T17:28:19.927Z,0
2022-12-28T17:29:00.423Z,0
2022-12-28T17:29:40.924Z,0
2022-12-28T17:30:21.429Z,0
2022-12-28T17:31:01.920Z,0
2022-12-28T17:31:42.474Z,0
2022-12-28T17:38:03.671Z,0
2022-12-28T17:38:44.062Z,0
2022-12-28T17:39:24.665Z,0
2022-12-28T17:40:05.138Z,0
2022-12-28T17:40:45.647Z,0
2022-12-28T17:41:26.180Z,0
2022-12-28T17:42:06.746Z,0
2022-12-28T17:42:47.187Z,0
2022-12-28T17:43:27.685Z,0
2022-12-28T17:44:08.169Z,0
2022-12-28T17:51:33.754Z,0
2022-12-28T17:52:14.222Z,0
2022-12-28T18:34:05.641Z,0
2022-12-28T18:34:46.236Z,0
2022-12-28T18:35:26.794Z,0
2022-12-28T18:36:09.386Z,0
2022-12-28T18:36:47.795Z,0
2022-12-28T18:37:28.295Z,0
2022-12-28T18:38:08.774Z,0
2022-12-28T18:38:49.266Z,0
2022-12-28T18:39:29.780Z,0
2022-12-28T18:40:10.344Z,0
2022-12-28T18:46:55.607Z,0
2022-12-28T18:47:36.160Z,0
2022-12-28T18:48:16.722Z,0
2022-12-28T18:48:57.265Z,0
2022-12-28T18:49:40.205Z,0
2022-12-28T18:50:18.300Z,0
2022-12-28T18:50:58.806Z,0
2022-12-28T18:51:39.358Z,0
2022-12-28T18:52:19.901Z,0
2022-12-28T18:53:00.396Z,0
2022-12-28T18:59:45.411Z,0
2022-12-28T19:00:25.930Z,0
2022-12-28T19:01:06.541Z,0
2022-12-28T19:02:27.620Z,0
2022-12-28T19:03:08.202Z,0
2022-12-28T19:03:48.680Z,0
2022-12-28T19:04:29.252Z,0
2022-12-28T19:05:09.493Z,0
2022-12-28T19:05:49.988Z,0
2022-12-28T19:06:30.572Z,0
2022-12-28T19:13:15.797Z,0
2022-12-28T19:13:56.691Z,0
2022-12-28T19:14:36.894Z,0
2022-12-28T19:15:17.341Z,0
2022-12-28T19:15:57.951Z,0
2022-12-28T19:16:38.407Z,0
2022-12-28T19:17:18.821Z,0
2022-12-28T19:17:59.348Z,0
2022-12-28T19:18:39.898Z,0
2022-12-28T19:19:20.437Z,0
2022-12-28T19:26:05.737Z,0
2022-12-28T19:26:46.369Z,0
2022-12-28T19:27:26.921Z,0
2022-12-28T19:28:08.752Z,0
2022-12-28T19:28:50.156Z,0
2022-12-28T19:29:31.249Z,0
2022-12-28T19:34:15.912Z,0
2022-12-28T19:34:56.476Z,0
2022-12-28T19:35:37.587Z,0
2022-12-28T19:36:17.828Z,0
2022-12-28T19:36:58.418Z,0
2022-12-28T19:37:38.895Z,0
2022-12-28T19:38:19.692Z,0
2022-12-28T19:39:00.583Z,0
2022-12-28T19:43:46.266Z,0
2022-12-28T19:44:26.794Z,0
2022-12-28T19:45:09.950Z,0
2022-12-28T19:45:47.757Z,0
2022-12-28T19:46:28.326Z,0
2022-12-28T19:47:08.943Z,0
2022-12-28T19:47:49.317Z,0
2022-12-28T19:48:29.827Z,0
2022-12-28T19:49:10.394Z,0
2022-12-28T19:55:55.565Z,0
2022-12-28T19:56:36.078Z,0
2022-12-28T19:57:16.579Z,0
2022-12-28T19:57:57.093Z,0
2022-12-28T19:58:37.577Z,0
2022-12-28T19:59:18.126Z,0
2022-12-28T19:59:58.760Z,0
2022-12-28T20:01:19.939Z,0
2022-12-28T20:02:00.504Z,0
2022-12-28T20:08:45.564Z,0
2022-12-28T20:09:26.050Z,0
2022-12-28T20:10:06.607Z,0
2022-12-28T20:10:47.100Z,0
2022-12-28T20:11:27.639Z,0
2022-12-28T20:13:40.774Z,0
2022-12-28T20:14:24.912Z,0
2022-12-28T20:15:01.707Z,0
2022-12-28T20:15:42.227Z,0
2022-12-28T20:16:22.734Z,0
2022-12-28T20:17:03.188Z,0
2022-12-28T20:17:43.647Z,0
2022-12-28T20:18:24.179Z,0
2022-12-28T20:19:04.623Z,0
2022-12-28T20:19:45.122Z,0
2022-12-28T20:20:27.560Z,0
2022-12-28T20:27:10.564Z,0
2022-12-28T20:27:51.087Z,0
2022-12-28T20:28:31.561Z,0
2022-12-28T20:29:12.084Z,0
2022-12-28T20:29:52.598Z,0
2022-12-28T20:30:33.090Z,0
2022-12-28T20:31:13.654Z,0
2022-12-28T20:31:54.133Z,0
2022-12-28T20:32:37.336Z,0
2022-12-28T20:33:15.071Z,0
2022-12-28T20:33:55.557Z,0